Hauptseite
METAR-TAF:

METAR-TAF

Flughäfen :

Bizerta, Tunesien

Breite: 37-15N, Länge: 009-48E, Höhe: 5 m

Beobachtung

Neuester Wetterbericht von vor 23 Minuten, um 08:00 UTC
Wind 6 kt aus Süd/Südost
Temperatur 12°C
Luftfeuchtigkeit 88%
Luftdruck 1023 hPa
Sichtweite: 8000 m
Leicht bewölkt in der Höhe von 2000 ft

METAR: DTTB 240800Z 16006KT 8000 FEW020 12/10 Q1023

Zeit: 09:23 (08:23 UTC)

Prognose

Neuester Wetterbericht von vor 2 Stunden und 23 Minuten, um 06:00 UTC
Gültige Prognose vom 24 um 07 UTC bis 24 um 16 UTC
Wind 4 kt aus Süd/Südwest
Sichtweite: 6000 m
Leicht bewölkt in der Höhe von 2000 ft
Übergehend zu
vom 24 um 07 UTC bis 24 um 09 UTC
Wind 12 kt aus Süd
Sichtweite 10 km oder mehr
Aufgelockert bewölkt in der Höhe von 2300 ft

TAF: DTTB 240600Z 2407/2416 20004KT 6000 FEW020 BECMG 2407/2409 17012KT 9999 SCT023

Wetterbeobachtungen und Prognosen von mehr als 4000 Flughäfen (METAR und TAF Bericht).

Die verfügbaren Stationen werden durch gelbe und rote Markierungen auf der Karte dargestellt.

Führen Sie die Maus auf sie, um den Namen der Station zu sehen.

Darauf klicken, um die Beobachtung von Wetterbeobachtungen und Prognosen zu sehen.

Um die Karte zu ändern : klicken Sie auf den grünen Tasten mit einem schwarzen Kreuz Zum Vergrößern, auf den grünen Button mit einem Gedankenstrich zu verkleinern, oder auf die grünen Pfeile für benachbarte Karten.


METAR-TAF: